createdAt,value
2023-04-15T00:01:10.193Z,1.40
2023-04-15T00:03:37.797Z,1.30
2023-04-15T00:06:05.416Z,1.60
2023-04-15T00:08:32.552Z,2.55
2023-04-15T00:11:03.247Z,1.80
2023-04-15T00:13:30.948Z,1.30
2023-04-15T00:15:58.432Z,1.85
2023-04-15T00:18:25.819Z,1.80
2023-04-15T00:20:53.597Z,1.60
2023-04-15T00:23:20.892Z,1.80
2023-04-15T00:25:48.170Z,1.85
2023-04-15T00:28:15.329Z,1.45
2023-04-15T00:30:42.867Z,1.85
2023-04-15T00:33:10.387Z,1.80
2023-04-15T00:35:37.851Z,2.13
2023-04-15T00:38:06.463Z,2.25
2023-04-15T00:40:33.943Z,2.63
2023-04-15T00:43:01.414Z,2.80
2023-04-15T00:45:28.886Z,1.08
2023-04-15T00:47:56.962Z,1.85
2023-04-15T00:50:24.261Z,1.73
2023-04-15T00:52:52.088Z,1.58
2023-04-15T00:55:19.497Z,1.35
2023-04-15T00:57:47.120Z,1.85
2023-04-15T01:00:14.587Z,2.22
2023-04-15T01:02:42.359Z,2.20
2023-04-15T01:05:09.794Z,2.25
2023-04-15T01:07:37.046Z,2.25
2023-04-15T01:10:04.990Z,2.47
2023-04-15T01:12:34.030Z,2.17
2023-04-15T01:15:02.404Z,1.60
2023-04-15T01:17:30.226Z,3.63
2023-04-15T01:20:00.280Z,2.67
2023-04-15T01:22:28.972Z,2.63
2023-04-15T01:25:09.262Z,2.53
2023-04-15T01:27:41.494Z,2.97
2023-04-15T01:30:09.576Z,2.58
2023-04-15T01:32:37.099Z,2.35
2023-04-15T01:35:24.182Z,2.90
2023-04-15T01:37:51.447Z,3.25
2023-04-15T01:40:18.683Z,4.63
2023-04-15T01:42:47.182Z,2.83
2023-04-15T01:45:15.696Z,2.58
2023-04-15T01:47:44.048Z,1.70
2023-04-15T01:50:12.430Z,2.88
2023-04-15T01:52:40.968Z,2.70
2023-04-15T01:55:09.984Z,2.55
2023-04-15T01:57:38.375Z,2.13
2023-04-15T02:00:07.927Z,1.80
2023-04-15T02:02:36.341Z,2.20
2023-04-15T02:05:05.803Z,2.60
2023-04-15T02:07:34.272Z,1.55
2023-04-15T02:10:03.710Z,1.98
2023-04-15T02:12:32.040Z,2.33
2023-04-15T02:15:00.604Z,1.90
2023-04-15T02:17:29.108Z,2.55
2023-04-15T02:19:57.438Z,1.95
2023-04-15T02:22:25.889Z,2.33
2023-04-15T02:24:54.879Z,1.88
2023-04-15T02:27:23.300Z,1.70
2023-04-15T02:29:52.310Z,1.33
2023-04-15T02:32:23.387Z,1.38
2023-04-15T02:34:51.922Z,2.25
2023-04-15T02:37:20.666Z,1.45
2023-04-15T02:39:49.170Z,1.40
2023-04-15T02:42:17.544Z,1.30
2023-04-15T02:44:46.007Z,1.50
2023-04-15T02:47:15.112Z,1.15
2023-04-15T02:49:43.489Z,1.00
2023-04-15T02:52:11.887Z,1.00
2023-04-15T02:54:40.207Z,1.63
2023-04-15T02:57:08.612Z,1.35
2023-04-15T02:59:37.040Z,1.15
2023-04-15T03:02:07.925Z,1.65
2023-04-15T03:04:36.399Z,1.52
2023-04-15T03:07:04.668Z,1.58
2023-04-15T03:09:33.314Z,1.40
2023-04-15T03:12:01.837Z,1.40
2023-04-15T03:14:30.158Z,1.40
2023-04-15T03:16:59.698Z,1.20
2023-04-15T03:19:27.988Z,1.52
2023-04-15T03:21:56.452Z,2.03
2023-04-15T03:24:25.072Z,1.70
2023-04-15T03:26:53.314Z,0.90
2023-04-15T03:29:21.726Z,1.25
2023-04-15T03:31:50.084Z,1.25
2023-04-15T03:34:18.424Z,1.55
2023-04-15T03:36:47.294Z,1.30
2023-04-15T03:39:16.134Z,0.98
2023-04-15T03:41:44.589Z,1.05
2023-04-15T03:44:13.226Z,1.05
2023-04-15T03:46:41.876Z,1.42
2023-04-15T03:49:10.964Z,1.17
2023-04-15T03:51:39.354Z,1.25
2023-04-15T03:54:07.698Z,1.30
2023-04-15T03:56:36.075Z,0.90
2023-04-15T03:59:04.530Z,1.42
2023-04-15T04:01:32.931Z,1.02
2023-04-15T04:04:01.572Z,0.77
2023-04-15T04:06:30.091Z,1.10
2023-04-15T04:08:58.454Z,1.10
2023-04-15T04:11:28.351Z,1.20
2023-04-15T04:13:56.752Z,1.92
2023-04-15T04:16:25.174Z,0.63
2023-04-15T04:18:53.762Z,0.90
2023-04-15T04:21:22.180Z,0.88
2023-04-15T04:23:51.040Z,1.10
2023-04-15T04:26:19.931Z,1.55
2023-04-15T04:28:48.389Z,1.38
2023-04-15T04:31:17.245Z,1.23
2023-04-15T04:33:45.583Z,1.13
2023-04-15T04:36:13.985Z,1.30
2023-04-15T04:38:42.368Z,1.20
2023-04-15T04:41:10.831Z,1.40
2023-04-15T04:43:39.183Z,1.48
2023-04-15T04:46:07.551Z,0.80
2023-04-15T04:48:36.044Z,1.77
2023-04-15T04:51:04.865Z,1.25
2023-04-15T04:53:33.214Z,0.90
2023-04-15T04:56:01.863Z,0.95
2023-04-15T04:58:30.237Z,0.80
2023-04-15T05:00:58.547Z,0.80
2023-04-15T05:03:27.534Z,1.00
2023-04-15T05:05:56.020Z,0.75
2023-04-15T05:08:24.250Z,1.80
2023-04-15T05:10:52.536Z,1.85
2023-04-15T05:13:21.712Z,1.08
2023-04-15T05:18:18.148Z,1.33
2023-04-15T05:20:46.616Z,1.30
2023-04-15T05:23:14.812Z,1.08
2023-04-15T05:25:43.478Z,1.08
2023-04-15T05:28:12.496Z,1.10
2023-04-15T05:30:41.246Z,1.10
2023-04-15T05:33:09.583Z,0.82
2023-04-15T05:35:37.875Z,1.05
2023-04-15T05:38:06.453Z,1.13
2023-04-15T05:40:34.736Z,1.00
2023-04-15T05:43:03.067Z,1.25
2023-04-15T05:45:31.959Z,1.10
2023-04-15T05:48:00.188Z,1.27
2023-04-15T05:50:28.430Z,1.17
2023-04-15T05:52:56.791Z,1.10
2023-04-15T05:55:25.025Z,1.20
2023-04-15T05:57:53.290Z,1.85
2023-04-15T06:00:21.573Z,1.20
2023-04-15T06:02:50.301Z,2.05
2023-04-15T06:05:19.083Z,1.42
2023-04-15T06:07:48.552Z,1.30
2023-04-15T06:10:17.018Z,0.88
2023-04-15T06:12:45.998Z,1.30
2023-04-15T06:15:14.258Z,1.17
2023-04-15T06:17:42.603Z,1.25
2023-04-15T06:20:11.576Z,1.10
2023-04-15T06:22:39.754Z,1.10
2023-04-15T06:25:09.390Z,1.25
2023-04-15T06:27:38.116Z,1.10
2023-04-15T06:30:07.540Z,1.80
2023-04-15T06:32:36.067Z,1.98
2023-04-15T06:35:04.476Z,1.77
2023-04-15T06:37:32.774Z,2.10
2023-04-15T06:40:01.433Z,1.20
2023-04-15T06:42:29.895Z,2.10
2023-04-15T06:44:58.128Z,1.52
2023-04-15T06:47:26.835Z,1.92
2023-04-15T06:49:55.121Z,1.75
2023-04-15T06:52:23.350Z,2.63
2023-04-15T06:54:51.877Z,1.70
2023-04-15T06:57:20.046Z,3.67
2023-04-15T06:59:48.232Z,2.35
2023-04-15T07:02:16.677Z,1.70
2023-04-15T07:04:45.722Z,2.35
